sensor_id;sensor_type;location;lat;lon;timestamp;pressure;altitude;pressure_sealevel;temperature;humidity
11339;BME280;5724;42.684;23.252;2022-12-29T00:02:02;95239.66;;;4.27;96.15
11339;BME280;5724;42.684;23.252;2022-12-29T00:04:27;95253.31;;;4.36;96.42
11339;BME280;5724;42.684;23.252;2022-12-29T00:06:53;95234.75;;;4.29;96.34
11339;BME280;5724;42.684;23.252;2022-12-29T00:09:19;95248.59;;;4.41;95.89
11339;BME280;5724;42.684;23.252;2022-12-29T00:11:44;95250.19;;;4.42;95.74
11339;BME280;5724;42.684;23.252;2022-12-29T00:14:11;95249.69;;;4.40;96.21
11339;BME280;5724;42.684;23.252;2022-12-29T00:16:56;95247.09;;;4.35;95.97
11339;BME280;5724;42.684;23.252;2022-12-29T00:19:21;95250.38;;;4.32;95.13
11339;BME280;5724;42.684;23.252;2022-12-29T00:22:05;95263.69;;;4.28;95.26
11339;BME280;5724;42.684;23.252;2022-12-29T00:24:50;95266.09;;;4.30;96.65
11339;BME280;5724;42.684;23.252;2022-12-29T00:27:33;95266.53;;;4.37;95.78
11339;BME280;5724;42.684;23.252;2022-12-29T00:30:19;95265.84;;;4.45;95.63
11339;BME280;5724;42.684;23.252;2022-12-29T00:33:17;95270.91;;;4.33;94.50
11339;BME280;5724;42.684;23.252;2022-12-29T00:36:06;95267.06;;;4.20;95.68
11339;BME280;5724;42.684;23.252;2022-12-29T00:38:36;95269.75;;;4.07;96.42
11339;BME280;5724;42.684;23.252;2022-12-29T00:41:21;95274.78;;;3.94;96.66
11339;BME280;5724;42.684;23.252;2022-12-29T00:44:06;95283.84;;;4.03;97.01
11339;BME280;5724;42.684;23.252;2022-12-29T00:46:50;95284.28;;;4.11;96.19
11339;BME280;5724;42.684;23.252;2022-12-29T00:49:15;95283.47;;;4.10;96.46
11339;BME280;5724;42.684;23.252;2022-12-29T00:54:27;95277.56;;;3.89;97.28
11339;BME280;5724;42.684;23.252;2022-12-29T00:56:53;95282.53;;;3.63;99.09
11339;BME280;5724;42.684;23.252;2022-12-29T00:59:19;95284.88;;;3.70;99.50
11339;BME280;5724;42.684;23.252;2022-12-29T01:01:46;95281.38;;;3.51;100.00
11339;BME280;5724;42.684;23.252;2022-12-29T01:04:11;95267.91;;;3.45;100.00
11339;BME280;5724;42.684;23.252;2022-12-29T01:06:38;95276.63;;;3.42;100.00
11339;BME280;5724;42.684;23.252;2022-12-29T01:09:05;95266.31;;;3.44;100.00
11339;BME280;5724;42.684;23.252;2022-12-29T01:11:50;95269.91;;;3.40;100.00
11339;BME280;5724;42.684;23.252;2022-12-29T01:14:16;95277.38;;;3.24;100.00
11339;BME280;5724;42.684;23.252;2022-12-29T01:16:42;95269.50;;;3.28;100.00
11339;BME280;5724;42.684;23.252;2022-12-29T01:19:07;95271.31;;;3.13;100.00
11339;BME280;5724;42.684;23.252;2022-12-29T01:21:33;95270.72;;;3.16;100.00
11339;BME280;5724;42.684;23.252;2022-12-29T01:23:58;95263.97;;;3.19;100.00
11339;BME280;5724;42.684;23.252;2022-12-29T01:26:24;95254.19;;;3.23;100.00
11339;BME280;5724;42.684;23.252;2022-12-29T01:28:49;95257.91;;;3.27;100.00
11339;BME280;5724;42.684;23.252;2022-12-29T01:31:15;95259.91;;;3.40;100.00
11339;BME280;5724;42.684;23.252;2022-12-29T01:33:42;95260.34;;;3.48;100.00
11339;BME280;5724;42.684;23.252;2022-12-29T01:36:10;95256.47;;;3.54;100.00
11339;BME280;5724;42.684;23.252;2022-12-29T01:38:37;95253.09;;;3.62;100.00
11339;BME280;5724;42.684;23.252;2022-12-29T01:41:04;95247.34;;;3.50;100.00
11339;BME280;5724;42.684;23.252;2022-12-29T01:43:59;95246.59;;;3.63;100.00
11339;BME280;5724;42.684;23.252;2022-12-29T01:46:27;95237.84;;;3.71;100.00
11339;BME280;5724;42.684;23.252;2022-12-29T01:51:30;95236.09;;;3.80;100.00
11339;BME280;5724;42.684;23.252;2022-12-29T01:53:58;95233.69;;;3.79;100.00
11339;BME280;5724;42.684;23.252;2022-12-29T01:56:26;95237.53;;;3.72;100.00
11339;BME280;5724;42.684;23.252;2022-12-29T01:58:57;95240.19;;;3.78;100.00
11339;BME280;5724;42.684;23.252;2022-12-29T02:01:25;95238.19;;;3.83;100.00
11339;BME280;5724;42.684;23.252;2022-12-29T02:03:51;95234.09;;;3.86;100.00
11339;BME280;5724;42.684;23.252;2022-12-29T02:06:22;95227.31;;;3.88;99.61
11339;BME280;5724;42.684;23.252;2022-12-29T02:08:50;95217.00;;;3.90;99.55
11339;BME280;5724;42.684;23.252;2022-12-29T02:11:18;95224.44;;;3.98;99.17
11339;BME280;5724;42.684;23.252;2022-12-29T02:13:44;95220.13;;;3.97;99.27
11339;BME280;5724;42.684;23.252;2022-12-29T02:18:58;95222.16;;;4.06;98.91
11339;BME280;5724;42.684;23.252;2022-12-29T02:21:43;95220.72;;;3.94;98.07
11339;BME280;5724;42.684;23.252;2022-12-29T02:24:45;95220.66;;;3.81;98.90
11339;BME280;5724;42.684;23.252;2022-12-29T02:30:08;95215.47;;;3.65;100.00
11339;BME280;5724;42.684;23.252;2022-12-29T02:37:45;95226.75;;;3.54;100.00
11339;BME280;5724;42.684;23.252;2022-12-29T02:40:23;95232.16;;;3.54;100.00
11339;BME280;5724;42.684;23.252;2022-12-29T02:45:50;95232.00;;;3.64;100.00
11339;BME280;5724;42.684;23.252;2022-12-29T02:50:57;95229.81;;;3.66;100.00
11339;BME280;5724;42.684;23.252;2022-12-29T02:53:24;95225.19;;;3.66;100.00
11339;BME280;5724;42.684;23.252;2022-12-29T02:56:09;95220.03;;;3.70;100.00
11339;BME280;5724;42.684;23.252;2022-12-29T02:58:35;95213.81;;;3.69;100.00
11339;BME280;5724;42.684;23.252;2022-12-29T03:01:11;95217.22;;;3.75;100.00
11339;BME280;5724;42.684;23.252;2022-12-29T03:04:12;95212.19;;;3.87;100.00
11339;BME280;5724;42.684;23.252;2022-12-29T03:07:07;95203.47;;;3.90;99.97
11339;BME280;5724;42.684;23.252;2022-12-29T03:09:50;95201.22;;;3.97;99.54
11339;BME280;5724;42.684;23.252;2022-12-29T03:12:29;95207.56;;;4.07;98.85
11339;BME280;5724;42.684;23.252;2022-12-29T03:15:23;95204.44;;;4.13;98.30
11339;BME280;5724;42.684;23.252;2022-12-29T03:18:15;95201.53;;;4.10;98.42
11339;BME280;5724;42.684;23.252;2022-12-29T03:20:58;95201.41;;;4.01;98.31
11339;BME280;5724;42.684;23.252;2022-12-29T03:23:27;95182.97;;;3.89;98.02
11339;BME280;5724;42.684;23.252;2022-12-29T03:25:55;95200.78;;;3.90;98.09
11339;BME280;5724;42.684;23.252;2022-12-29T03:28:30;95195.88;;;3.92;98.14
11339;BME280;5724;42.684;23.252;2022-12-29T03:30:58;95200.81;;;4.04;97.82
11339;BME280;5724;42.684;23.252;2022-12-29T03:33:27;95207.56;;;4.07;97.21
11339;BME280;5724;42.684;23.252;2022-12-29T03:35:58;95202.34;;;4.10;97.03
11339;BME280;5724;42.684;23.252;2022-12-29T03:38:34;95197.31;;;4.03;96.83
11339;BME280;5724;42.684;23.252;2022-12-29T03:41:04;95205.34;;;4.09;96.14
11339;BME280;5724;42.684;23.252;2022-12-29T03:43:31;95204.03;;;4.06;96.39
11339;BME280;5724;42.684;23.252;2022-12-29T03:45:57;95212.97;;;4.07;96.64
11339;BME280;5724;42.684;23.252;2022-12-29T03:48:22;95205.59;;;3.93;96.75
11339;BME280;5724;42.684;23.252;2022-12-29T03:50:48;95209.84;;;3.81;97.28
11339;BME280;5724;42.684;23.252;2022-12-29T03:53:13;95207.91;;;3.30;99.97
11339;BME280;5724;42.684;23.252;2022-12-29T03:55:38;95208.03;;;3.01;100.00
11339;BME280;5724;42.684;23.252;2022-12-29T03:58:04;95218.31;;;3.17;100.00
11339;BME280;5724;42.684;23.252;2022-12-29T04:00:30;95218.25;;;3.04;100.00
11339;BME280;5724;42.684;23.252;2022-12-29T04:02:56;95212.03;;;3.03;100.00
11339;BME280;5724;42.684;23.252;2022-12-29T04:05:21;95219.66;;;3.20;100.00
11339;BME280;5724;42.684;23.252;2022-12-29T04:07:47;95227.72;;;2.77;100.00
11339;BME280;5724;42.684;23.252;2022-12-29T04:10:12;95236.25;;;2.90;100.00
11339;BME280;5724;42.684;23.252;2022-12-29T04:12:38;95215.16;;;2.92;100.00
11339;BME280;5724;42.684;23.252;2022-12-29T04:15:04;95225.88;;;2.97;100.00
11339;BME280;5724;42.684;23.252;2022-12-29T04:17:29;95219.63;;;3.01;100.00
11339;BME280;5724;42.684;23.252;2022-12-29T04:19:55;95229.00;;;3.09;100.00
11339;BME280;5724;42.684;23.252;2022-12-29T04:22:40;95218.25;;;3.04;100.00
11339;BME280;5724;42.684;23.252;2022-12-29T04:25:06;95211.03;;;2.99;100.00
11339;BME280;5724;42.684;23.252;2022-12-29T04:27:32;95218.13;;;3.14;100.00
11339;BME280;5724;42.684;23.252;2022-12-29T04:29:57;95228.56;;;3.21;100.00
11339;BME280;5724;42.684;23.252;2022-12-29T04:32:22;95224.91;;;3.11;100.00
11339;BME280;5724;42.684;23.252;2022-12-29T04:34:48;95226.72;;;3.16;100.00
11339;BME280;5724;42.684;23.252;2022-12-29T04:37:13;95236.56;;;3.07;100.00
11339;BME280;5724;42.684;23.252;2022-12-29T04:39:39;95232.03;;;3.02;100.00
11339;BME280;5724;42.684;23.252;2022-12-29T04:42:04;95236.63;;;3.02;100.00
11339;BME280;5724;42.684;23.252;2022-12-29T04:44:29;95248.34;;;2.92;100.00
11339;BME280;5724;42.684;23.252;2022-12-29T04:46:55;95252.06;;;2.96;100.00
11339;BME280;5724;42.684;23.252;2022-12-29T04:49:20;95253.75;;;2.92;100.00
11339;BME280;5724;42.684;23.252;2022-12-29T04:51:46;95243.75;;;2.93;99.62
11339;BME280;5724;42.684;23.252;2022-12-29T04:54:11;95247.78;;;2.95;99.55
11339;BME280;5724;42.684;23.252;2022-12-29T04:56:37;95257.56;;;2.91;99.75
11339;BME280;5724;42.684;23.252;2022-12-29T04:59:02;95257.97;;;2.98;99.82
11339;BME280;5724;42.684;23.252;2022-12-29T05:01:28;95259.38;;;2.96;99.88
11339;BME280;5724;42.684;23.252;2022-12-29T05:03:53;95263.63;;;3.02;99.65
11339;BME280;5724;42.684;23.252;2022-12-29T05:06:19;95256.84;;;3.04;99.90
11339;BME280;5724;42.684;23.252;2022-12-29T05:08:44;95264.34;;;3.07;100.00
11339;BME280;5724;42.684;23.252;2022-12-29T05:11:10;95265.69;;;3.10;100.00
11339;BME280;5724;42.684;23.252;2022-12-29T05:13:35;95266.72;;;3.14;100.00
11339;BME280;5724;42.684;23.252;2022-12-29T05:16:00;95265.81;;;3.00;100.00
11339;BME280;5724;42.684;23.252;2022-12-29T05:18:26;95275.34;;;2.92;100.00
11339;BME280;5724;42.684;23.252;2022-12-29T05:20:51;95265.41;;;2.87;100.00
11339;BME280;5724;42.684;23.252;2022-12-29T05:23:17;95271.66;;;2.83;100.00
11339;BME280;5724;42.684;23.252;2022-12-29T05:25:43;95264.72;;;2.77;100.00
11339;BME280;5724;42.684;23.252;2022-12-29T05:28:10;95261.22;;;2.76;100.00
11339;BME280;5724;42.684;23.252;2022-12-29T05:30:35;95262.94;;;2.67;100.00
11339;BME280;5724;42.684;23.252;2022-12-29T05:33:01;95261.72;;;2.78;100.00
11339;BME280;5724;42.684;23.252;2022-12-29T05:35:26;95253.06;;;2.81;100.00
11339;BME280;5724;42.684;23.252;2022-12-29T05:37:52;95262.66;;;2.93;100.00
11339;BME280;5724;42.684;23.252;2022-12-29T05:40:17;95267.31;;;3.11;100.00
11339;BME280;5724;42.684;23.252;2022-12-29T05:42:43;95265.03;;;3.18;100.00
11339;BME280;5724;42.684;23.252;2022-12-29T05:45:09;95271.34;;;3.08;100.00
11339;BME280;5724;42.684;23.252;2022-12-29T05:47:34;95262.81;;;3.01;100.00
11339;BME280;5724;42.684;23.252;2022-12-29T05:50:00;95275.44;;;3.06;100.00
11339;BME280;5724;42.684;23.252;2022-12-29T05:52:26;95277.06;;;3.07;100.00
11339;BME280;5724;42.684;23.252;2022-12-29T05:54:51;95274.81;;;3.14;100.00
11339;BME280;5724;42.684;23.252;2022-12-29T05:57:17;95265.19;;;3.27;100.00
11339;BME280;5724;42.684;23.252;2022-12-29T05:59:42;95271.34;;;3.32;100.00
11339;BME280;5724;42.684;23.252;2022-12-29T06:02:09;95272.66;;;3.35;100.00
11339;BME280;5724;42.684;23.252;2022-12-29T06:04:35;95275.06;;;3.36;100.00
11339;BME280;5724;42.684;23.252;2022-12-29T06:07:00;95273.16;;;3.37;100.00
11339;BME280;5724;42.684;23.252;2022-12-29T06:09:26;95274.56;;;3.34;100.00
11339;BME280;5724;42.684;23.252;2022-12-29T06:11:51;95273.09;;;3.42;100.00
11339;BME280;5724;42.684;23.252;2022-12-29T06:14:16;95273.31;;;3.45;100.00
11339;BME280;5724;42.684;23.252;2022-12-29T06:16:42;95275.31;;;3.40;100.00
11339;BME280;5724;42.684;23.252;2022-12-29T06:19:07;95278.16;;;3.49;100.00
11339;BME280;5724;42.684;23.252;2022-12-29T06:21:33;95280.56;;;3.50;100.00
11339;BME280;5724;42.684;23.252;2022-12-29T06:23:58;95284.53;;;3.58;100.00
11339;BME280;5724;42.684;23.252;2022-12-29T06:26:24;95282.31;;;3.60;100.00
11339;BME280;5724;42.684;23.252;2022-12-29T06:28:49;95286.53;;;3.66;99.26
11339;BME280;5724;42.684;23.252;2022-12-29T06:31:15;95287.66;;;3.65;99.29
11339;BME280;5724;42.684;23.252;2022-12-29T06:33:40;95279.63;;;3.79;98.94
11339;BME280;5724;42.684;23.252;2022-12-29T06:36:06;95287.44;;;3.80;98.47
11339;BME280;5724;42.684;23.252;2022-12-29T06:38:32;95281.00;;;3.76;98.63
11339;BME280;5724;42.684;23.252;2022-12-29T06:40:57;95290.50;;;3.73;98.47
11339;BME280;5724;42.684;23.252;2022-12-29T06:43:22;95287.34;;;3.85;98.01
11339;BME280;5724;42.684;23.252;2022-12-29T06:45:48;95289.25;;;3.66;98.01
11339;BME280;5724;42.684;23.252;2022-12-29T06:48:13;95296.16;;;3.77;98.36
11339;BME280;5724;42.684;23.252;2022-12-29T06:50:39;95298.16;;;3.66;98.42
11339;BME280;5724;42.684;23.252;2022-12-29T06:53:04;95289.78;;;3.87;97.56
11339;BME280;5724;42.684;23.252;2022-12-29T06:55:30;95288.28;;;3.94;97.56
11339;BME280;5724;42.684;23.252;2022-12-29T06:57:56;95298.28;;;4.13;96.44
11339;BME280;5724;42.684;23.252;2022-12-29T07:00:23;95289.09;;;4.14;96.64
11339;BME280;5724;42.684;23.252;2022-12-29T07:02:49;95293.84;;;3.84;96.81
11339;BME280;5724;42.684;23.252;2022-12-29T07:05:14;95295.31;;;3.95;96.44
11339;BME280;5724;42.684;23.252;2022-12-29T07:07:40;95301.31;;;3.73;96.80
11339;BME280;5724;42.684;23.252;2022-12-29T07:10:05;95301.41;;;3.87;97.59
11339;BME280;5724;42.684;23.252;2022-12-29T07:12:31;95289.56;;;3.83;98.19
11339;BME280;5724;42.684;23.252;2022-12-29T07:14:56;95297.28;;;4.09;97.71
11339;BME280;5724;42.684;23.252;2022-12-29T07:17:22;95296.81;;;4.20;96.00
11339;BME280;5724;42.684;23.252;2022-12-29T07:19:47;95297.00;;;4.10;96.16
11339;BME280;5724;42.684;23.252;2022-12-29T07:22:13;95290.13;;;3.99;94.47
11339;BME280;5724;42.684;23.252;2022-12-29T07:24:38;95291.31;;;3.74;97.12
11339;BME280;5724;42.684;23.252;2022-12-29T07:27:04;95302.91;;;3.74;96.45
11339;BME280;5724;42.684;23.252;2022-12-29T07:29:29;95299.84;;;3.81;97.09
11339;BME280;5724;42.684;23.252;2022-12-29T07:31:55;95308.63;;;3.73;97.18
11339;BME280;5724;42.684;23.252;2022-12-29T07:34:20;95297.09;;;3.86;96.68
11339;BME280;5724;42.684;23.252;2022-12-29T07:36:46;95296.56;;;3.65;97.72
11339;BME280;5724;42.684;23.252;2022-12-29T07:39:11;95296.19;;;3.91;96.64
11339;BME280;5724;42.684;23.252;2022-12-29T07:41:37;95299.00;;;3.67;98.23
11339;BME280;5724;42.684;23.252;2022-12-29T07:44:02;95301.81;;;3.57;99.14
11339;BME280;5724;42.684;23.252;2022-12-29T07:46:28;95298.53;;;3.60;99.65
11339;BME280;5724;42.684;23.252;2022-12-29T07:48:54;95296.56;;;3.65;99.46
11339;BME280;5724;42.684;23.252;2022-12-29T07:51:19;95301.31;;;3.73;99.29
11339;BME280;5724;42.684;23.252;2022-12-29T07:53:44;95301.69;;;3.67;99.04
11339;BME280;5724;42.684;23.252;2022-12-29T07:56:10;95307.50;;;3.55;99.41
11339;BME280;5724;42.684;23.252;2022-12-29T07:58:35;95307.16;;;3.62;99.66
11339;BME280;5724;42.684;23.252;2022-12-29T08:01:01;95306.97;;;3.77;99.36
11339;BME280;5724;42.684;23.252;2022-12-29T08:03:26;95316.88;;;3.63;98.91
11339;BME280;5724;42.684;23.252;2022-12-29T08:05:52;95312.50;;;3.67;99.26
11339;BME280;5724;42.684;23.252;2022-12-29T08:08:18;95313.31;;;3.67;98.89
11339;BME280;5724;42.684;23.252;2022-12-29T08:10:43;95321.72;;;3.42;99.20
11339;BME280;5724;42.684;23.252;2022-12-29T08:13:08;95322.19;;;3.49;99.87
11339;BME280;5724;42.684;23.252;2022-12-29T08:15:34;95316.66;;;3.59;99.12
11339;BME280;5724;42.684;23.252;2022-12-29T08:17:59;95312.41;;;3.72;98.36
11339;BME280;5724;42.684;23.252;2022-12-29T08:20:25;95306.56;;;3.84;97.84
11339;BME280;5724;42.684;23.252;2022-12-29T08:22:51;95306.34;;;3.99;97.82
11339;BME280;5724;42.684;23.252;2022-12-29T08:25:16;95313.16;;;4.15;96.44
11339;BME280;5724;42.684;23.252;2022-12-29T08:27:42;95314.03;;;4.11;95.91
11339;BME280;5724;42.684;23.252;2022-12-29T08:30:07;95307.78;;;4.29;95.82
11339;BME280;5724;42.684;23.252;2022-12-29T08:32:33;95310.75;;;4.46;95.48
11339;BME280;5724;42.684;23.252;2022-12-29T08:34:59;95305.25;;;4.51;93.96
11339;BME280;5724;42.684;23.252;2022-12-29T08:37:24;95317.16;;;4.97;93.22
11339;BME280;5724;42.684;23.252;2022-12-29T08:39:49;95320.97;;;5.09;92.16
11339;BME280;5724;42.684;23.252;2022-12-29T08:42:15;95315.47;;;5.14;91.58
11339;BME280;5724;42.684;23.252;2022-12-29T08:44:41;95317.16;;;5.10;91.31
11339;BME280;5724;42.684;23.252;2022-12-29T08:47:06;95313.28;;;5.03;90.54
11339;BME280;5724;42.684;23.252;2022-12-29T08:49:32;95269.84;;;4.94;90.70
11339;BME280;5724;42.684;23.252;2022-12-29T08:51:59;95315.38;;;5.47;90.10
11339;BME280;5724;42.684;23.252;2022-12-29T08:54:24;95309.75;;;5.57;88.33
11339;BME280;5724;42.684;23.252;2022-12-29T08:56:50;95306.72;;;5.72;87.90
11339;BME280;5724;42.684;23.252;2022-12-29T08:59:15;95306.16;;;5.98;86.72
11339;BME280;5724;42.684;23.252;2022-12-29T09:01:41;95300.16;;;6.01;86.38
11339;BME280;5724;42.684;23.252;2022-12-29T09:04:07;95307.25;;;6.11;85.17
11339;BME280;5724;42.684;23.252;2022-12-29T09:06:33;95297.88;;;6.39;84.51
11339;BME280;5724;42.684;23.252;2022-12-29T09:08:58;95293.72;;;6.64;83.72
11339;BME280;5724;42.684;23.252;2022-12-29T09:11:24;95295.34;;;6.43;82.92
11339;BME280;5724;42.684;23.252;2022-12-29T09:13:51;95294.63;;;6.51;82.56
11339;BME280;5724;42.684;23.252;2022-12-29T09:16:17;95299.34;;;6.68;82.63
11339;BME280;5724;42.684;23.252;2022-12-29T09:18:43;95297.03;;;6.83;81.82
11339;BME280;5724;42.684;23.252;2022-12-29T09:21:10;95281.38;;;6.80;80.45
11339;BME280;5724;42.684;23.252;2022-12-29T09:23:36;95290.94;;;7.09;80.49
11339;BME280;5724;42.684;23.252;2022-12-29T09:26:02;95292.19;;;6.72;81.22
11339;BME280;5724;42.684;23.252;2022-12-29T09:28:29;95289.09;;;6.65;81.55
11339;BME280;5724;42.684;23.252;2022-12-29T09:30:55;95290.63;;;6.48;82.16
11339;BME280;5724;42.684;23.252;2022-12-29T09:33:21;95283.13;;;6.54;82.25
11339;BME280;5724;42.684;23.252;2022-12-29T09:35:51;95279.09;;;6.74;81.53
11339;BME280;5724;42.684;23.252;2022-12-29T09:38:17;95274.22;;;5.95;83.76
11339;BME280;5724;42.684;23.252;2022-12-29T09:40:45;95263.59;;;5.85;85.59
11339;BME280;5724;42.684;23.252;2022-12-29T09:43:39;95268.47;;;6.10;85.21
11339;BME280;5724;42.684;23.252;2022-12-29T09:46:27;95270.69;;;6.30;84.59
11339;BME280;5724;42.684;23.252;2022-12-29T09:49:29;95269.13;;;6.60;83.04
11339;BME280;5724;42.684;23.252;2022-12-29T09:52:04;95263.81;;;6.55;82.94
11339;BME280;5724;42.684;23.252;2022-12-29T09:54:41;95270.41;;;6.63;82.85
11339;BME280;5724;42.684;23.252;2022-12-29T10:00:21;95251.50;;;6.05;85.31
11339;BME280;5724;42.684;23.252;2022-12-29T10:02:52;95251.81;;;6.25;85.27
11339;BME280;5724;42.684;23.252;2022-12-29T10:10:56;95248.28;;;7.18;81.87
11339;BME280;5724;42.684;23.252;2022-12-29T10:13:39;95240.03;;;6.92;81.09
11339;BME280;5724;42.684;23.252;2022-12-29T10:16:30;95247.88;;;6.63;82.77
11339;BME280;5724;42.684;23.252;2022-12-29T10:19:13;95242.97;;;6.73;82.10
11339;BME280;5724;42.684;23.252;2022-12-29T10:21:49;95234.28;;;6.94;81.59
11339;BME280;5724;42.684;23.252;2022-12-29T10:24:20;95234.69;;;7.18;80.80
11339;BME280;5724;42.684;23.252;2022-12-29T10:26:48;95227.72;;;7.43;80.27
11339;BME280;5724;42.684;23.252;2022-12-29T10:29:19;95196.84;;;7.30;79.29
11339;BME280;5724;42.684;23.252;2022-12-29T10:32:04;95223.00;;;7.83;78.47
11339;BME280;5724;42.684;23.252;2022-12-29T10:34:34;95225.53;;;7.88;78.06
11339;BME280;5724;42.684;23.252;2022-12-29T10:37:31;95227.59;;;8.09;77.37
11339;BME280;5724;42.684;23.252;2022-12-29T10:40:02;95205.03;;;8.17;76.24
11339;BME280;5724;42.684;23.252;2022-12-29T10:42:43;95213.69;;;8.36;75.60
11339;BME280;5724;42.684;23.252;2022-12-29T10:45:14;95202.28;;;8.34;75.38
11339;BME280;5724;42.684;23.252;2022-12-29T10:48:03;95214.50;;;7.93;76.75
11339;BME280;5724;42.684;23.252;2022-12-29T10:50:31;95205.84;;;8.17;76.27
11339;BME280;5724;42.684;23.252;2022-12-29T10:53:02;95198.66;;;8.13;75.86
11339;BME280;5724;42.684;23.252;2022-12-29T10:55:35;95205.09;;;8.81;74.70
11339;BME280;5724;42.684;23.252;2022-12-29T10:58:04;95201.63;;;9.31;72.88
11339;BME280;5724;42.684;23.252;2022-12-29T11:00:32;95197.78;;;9.32;72.22
11339;BME280;5724;42.684;23.252;2022-12-29T11:05:26;95188.66;;;9.99;70.33
11339;BME280;5724;42.684;23.252;2022-12-29T11:08:01;95191.97;;;10.25;69.95
11339;BME280;5724;42.684;23.252;2022-12-29T11:15:24;95180.41;;;10.41;68.20
11339;BME280;5724;42.684;23.252;2022-12-29T11:17:56;95175.63;;;10.38;68.29
11339;BME280;5724;42.684;23.252;2022-12-29T11:22:53;95176.19;;;10.88;67.05
11339;BME280;5724;42.684;23.252;2022-12-29T11:25:19;95173.91;;;10.78;67.39
11339;BME280;5724;42.684;23.252;2022-12-29T11:28:04;95170.56;;;10.60;66.70
11339;BME280;5724;42.684;23.252;2022-12-29T11:30:39;95173.94;;;11.03;66.28
11339;BME280;5724;42.684;23.252;2022-12-29T11:33:04;95170.50;;;11.06;65.01
11339;BME280;5724;42.684;23.252;2022-12-29T11:35:35;95167.25;;;10.01;67.52
11339;BME280;5724;42.684;23.252;2022-12-29T11:38:02;95166.84;;;10.11;67.93
11339;BME280;5724;42.684;23.252;2022-12-29T11:40:29;95164.91;;;10.12;68.76
11339;BME280;5724;42.684;23.252;2022-12-29T11:43:05;95164.50;;;9.89;68.94
11339;BME280;5724;42.684;23.252;2022-12-29T11:45:33;95161.09;;;9.71;69.92
11339;BME280;5724;42.684;23.252;2022-12-29T11:48:20;95156.69;;;9.37;70.92
11339;BME280;5724;42.684;23.252;2022-12-29T11:50:54;95159.53;;;9.20;71.12
11339;BME280;5724;42.684;23.252;2022-12-29T11:55:56;95111.09;;;8.87;72.17
11339;BME280;5724;42.684;23.252;2022-12-29T11:58:30;95155.97;;;8.98;72.47
11339;BME280;5724;42.684;23.252;2022-12-29T12:01:01;95155.94;;;8.69;73.54
11339;BME280;5724;42.684;23.252;2022-12-29T12:03:30;95143.06;;;8.40;74.89
11339;BME280;5724;42.684;23.252;2022-12-29T12:06:00;95150.34;;;8.56;74.53
11339;BME280;5724;42.684;23.252;2022-12-29T12:08:37;95145.28;;;8.38;74.90
11339;BME280;5724;42.684;23.252;2022-12-29T12:13:53;95146.00;;;7.91;77.32
11339;BME280;5724;42.684;23.252;2022-12-29T12:19:04;95147.75;;;7.96;76.96
11339;BME280;5724;42.684;23.252;2022-12-29T12:21:40;95139.25;;;7.97;77.36
11339;BME280;5724;42.684;23.252;2022-12-29T12:29:32;95121.91;;;8.37;76.63
11339;BME280;5724;42.684;23.252;2022-12-29T12:34:54;95127.47;;;8.49;75.48
11339;BME280;5724;42.684;23.252;2022-12-29T12:53:36;95119.44;;;9.20;73.24
11339;BME280;5724;42.684;23.252;2022-12-29T12:58:53;95115.38;;;8.97;73.77
11339;BME280;5724;42.684;23.252;2022-12-29T13:01:35;95118.44;;;8.95;73.60
11339;BME280;5724;42.684;23.252;2022-12-29T13:06:50;95112.81;;;9.00;73.55
11339;BME280;5724;42.684;23.252;2022-12-29T13:09:31;95121.44;;;9.02;73.83
11339;BME280;5724;42.684;23.252;2022-12-29T13:15:04;95115.25;;;8.93;74.52
11339;BME280;5724;42.684;23.252;2022-12-29T13:17:45;95103.44;;;8.51;75.30
11339;BME280;5724;42.684;23.252;2022-12-29T13:22:57;95114.09;;;9.24;73.49
11339;BME280;5724;42.684;23.252;2022-12-29T13:28:04;95120.09;;;9.38;72.37
11339;BME280;5724;42.684;23.252;2022-12-29T13:36:05;95129.50;;;9.49;71.76
11339;BME280;5724;42.684;23.252;2022-12-29T13:38:40;95127.44;;;9.46;71.93
11339;BME280;5724;42.684;23.252;2022-12-29T13:41:14;95127.34;;;9.55;71.46
11339;BME280;5724;42.684;23.252;2022-12-29T13:43:45;95127.22;;;9.51;71.05
11339;BME280;5724;42.684;23.252;2022-12-29T13:46:36;95123.75;;;9.42;71.55
11339;BME280;5724;42.684;23.252;2022-12-29T13:49:17;95129.44;;;9.37;72.07
11339;BME280;5724;42.684;23.252;2022-12-29T13:51:52;95122.03;;;9.37;72.13
11339;BME280;5724;42.684;23.252;2022-12-29T13:54:30;95125.69;;;9.41;71.50
11339;BME280;5724;42.684;23.252;2022-12-29T13:57:10;95124.44;;;9.39;72.01
11339;BME280;5724;42.684;23.252;2022-12-29T13:59:48;95123.63;;;9.38;72.18
11339;BME280;5724;42.684;23.252;2022-12-29T14:02:40;95129.66;;;9.44;71.66
11339;BME280;5724;42.684;23.252;2022-12-29T14:07:45;95122.50;;;9.39;71.76
11339;BME280;5724;42.684;23.252;2022-12-29T14:10:50;95130.44;;;9.03;73.09
11339;BME280;5724;42.684;23.252;2022-12-29T14:13:23;95127.25;;;8.63;74.53
11339;BME280;5724;42.684;23.252;2022-12-29T14:15:55;95136.31;;;8.37;75.86
11339;BME280;5724;42.684;23.252;2022-12-29T14:18:28;95139.50;;;8.39;75.99
11339;BME280;5724;42.684;23.252;2022-12-29T14:23:42;95145.28;;;8.29;77.11
11339;BME280;5724;42.684;23.252;2022-12-29T14:26:13;95136.50;;;8.15;77.64
11339;BME280;5724;42.684;23.252;2022-12-29T14:28:42;95148.06;;;8.12;77.83
11339;BME280;5724;42.684;23.252;2022-12-29T14:33:39;95142.44;;;8.08;78.16
11339;BME280;5724;42.684;23.252;2022-12-29T14:36:33;95151.72;;;8.07;78.42
11339;BME280;5724;42.684;23.252;2022-12-29T14:38:59;95153.50;;;8.12;78.44
11339;BME280;5724;42.684;23.252;2022-12-29T14:41:40;95149.66;;;8.04;78.43
11339;BME280;5724;42.684;23.252;2022-12-29T14:47:05;95155.91;;;7.87;79.22
11339;BME280;5724;42.684;23.252;2022-12-29T14:49:40;95160.75;;;7.64;80.11
11339;BME280;5724;42.684;23.252;2022-12-29T14:54:44;95165.38;;;7.64;80.81
11339;BME280;5724;42.684;23.252;2022-12-29T14:57:22;95164.06;;;7.61;81.02
11339;BME280;5724;42.684;23.252;2022-12-29T14:59:54;95160.88;;;7.59;81.38
11339;BME280;5724;42.684;23.252;2022-12-29T15:02:23;95161.88;;;7.63;81.27
11339;BME280;5724;42.684;23.252;2022-12-29T15:04:51;95151.94;;;7.67;81.00
11339;BME280;5724;42.684;23.252;2022-12-29T15:07:19;95148.09;;;7.68;81.09
11339;BME280;5724;42.684;23.252;2022-12-29T15:09:50;95157.38;;;7.67;81.24